sensor_id;sensor_type;location;lat;lon;timestamp;P1;durP1;ratioP1;P2;durP2;ratioP2
70532;SDS011;58088;51.186;17.130;2024-01-30T00:01:31;35.20;;;13.20;;
70532;SDS011;58088;51.186;17.130;2024-01-30T00:03:57;44.90;;;15.10;;
70532;SDS011;58088;51.186;17.130;2024-01-30T00:06:23;44.50;;;13.80;;
70532;SDS011;58088;51.186;17.130;2024-01-30T00:08:50;33.40;;;10.20;;
70532;SDS011;58088;51.186;17.130;2024-01-30T00:11:16;45.50;;;13.70;;
70532;SDS011;58088;51.186;17.130;2024-01-30T00:13:42;36.80;;;11.60;;
70532;SDS011;58088;51.186;17.130;2024-01-30T00:16:08;26.90;;;10.00;;
70532;SDS011;58088;51.186;17.130;2024-01-30T00:18:36;26.80;;;9.70;;
70532;SDS011;58088;51.186;17.130;2024-01-30T00:21:02;31.30;;;10.90;;
70532;SDS011;58088;51.186;17.130;2024-01-30T00:23:28;25.00;;;9.40;;
70532;SDS011;58088;51.186;17.130;2024-01-30T00:25:54;28.10;;;10.60;;
70532;SDS011;58088;51.186;17.130;2024-01-30T00:28:21;30.00;;;10.40;;
70532;SDS011;58088;51.186;17.130;2024-01-30T00:30:47;29.00;;;10.40;;
70532;SDS011;58088;51.186;17.130;2024-01-30T00:33:13;28.30;;;10.50;;
70532;SDS011;58088;51.186;17.130;2024-01-30T00:35:40;31.60;;;11.80;;
70532;SDS011;58088;51.186;17.130;2024-01-30T00:38:06;32.00;;;11.80;;
70532;SDS011;58088;51.186;17.130;2024-01-30T00:40:33;25.10;;;10.30;;
70532;SDS011;58088;51.186;17.130;2024-01-30T00:42:59;30.10;;;12.50;;
70532;SDS011;58088;51.186;17.130;2024-01-30T00:45:25;35.30;;;12.00;;
70532;SDS011;58088;51.186;17.130;2024-01-30T00:47:51;31.30;;;11.20;;
70532;SDS011;58088;51.186;17.130;2024-01-30T00:50:17;36.30;;;12.10;;
70532;SDS011;58088;51.186;17.130;2024-01-30T00:52:43;30.00;;;10.80;;
70532;SDS011;58088;51.186;17.130;2024-01-30T00:55:10;34.00;;;11.70;;
70532;SDS011;58088;51.186;17.130;2024-01-30T00:57:37;30.50;;;11.20;;
70532;SDS011;58088;51.186;17.130;2024-01-30T01:00:03;29.50;;;10.70;;
70532;SDS011;58088;51.186;17.130;2024-01-30T01:02:32;33.90;;;11.40;;
70532;SDS011;58088;51.186;17.130;2024-01-30T01:04:58;30.30;;;10.30;;
70532;SDS011;58088;51.186;17.130;2024-01-30T01:07:24;27.20;;;9.70;;
70532;SDS011;58088;51.186;17.130;2024-01-30T01:09:50;29.00;;;10.90;;
70532;SDS011;58088;51.186;17.130;2024-01-30T01:12:16;29.00;;;10.20;;
70532;SDS011;58088;51.186;17.130;2024-01-30T01:14:43;26.40;;;10.50;;
70532;SDS011;58088;51.186;17.130;2024-01-30T01:17:09;29.40;;;11.50;;
70532;SDS011;58088;51.186;17.130;2024-01-30T01:19:36;30.40;;;11.70;;
70532;SDS011;58088;51.186;17.130;2024-01-30T01:22:02;28.20;;;10.60;;
70532;SDS011;58088;51.186;17.130;2024-01-30T01:24:33;26.40;;;9.60;;
70532;SDS011;58088;51.186;17.130;2024-01-30T01:27:01;29.10;;;10.70;;
70532;SDS011;58088;51.186;17.130;2024-01-30T01:29:28;26.80;;;10.90;;
70532;SDS011;58088;51.186;17.130;2024-01-30T01:31:55;23.00;;;9.90;;
70532;SDS011;58088;51.186;17.130;2024-01-30T01:34:22;27.10;;;11.10;;
70532;SDS011;58088;51.186;17.130;2024-01-30T01:36:52;26.50;;;10.90;;
70532;SDS011;58088;51.186;17.130;2024-01-30T01:39:22;27.60;;;10.60;;
70532;SDS011;58088;51.186;17.130;2024-01-30T01:41:51;31.90;;;12.00;;
70532;SDS011;58088;51.186;17.130;2024-01-30T01:44:18;28.10;;;11.30;;
70532;SDS011;58088;51.186;17.130;2024-01-30T01:46:44;27.50;;;11.00;;
70532;SDS011;58088;51.186;17.130;2024-01-30T01:49:12;25.50;;;9.70;;
70532;SDS011;58088;51.186;17.130;2024-01-30T01:51:40;26.10;;;10.60;;
70532;SDS011;58088;51.186;17.130;2024-01-30T01:54:08;23.60;;;9.90;;
70532;SDS011;58088;51.186;17.130;2024-01-30T01:56:34;26.10;;;9.60;;
70532;SDS011;58088;51.186;17.130;2024-01-30T01:59:06;28.90;;;10.10;;
70532;SDS011;58088;51.186;17.130;2024-01-30T02:01:37;28.10;;;12.20;;
70532;SDS011;58088;51.186;17.130;2024-01-30T02:04:03;36.20;;;13.00;;
70532;SDS011;58088;51.186;17.130;2024-01-30T02:06:31;34.50;;;11.60;;
70532;SDS011;58088;51.186;17.130;2024-01-30T02:08:58;32.60;;;12.80;;
70532;SDS011;58088;51.186;17.130;2024-01-30T02:11:24;47.40;;;15.80;;
70532;SDS011;58088;51.186;17.130;2024-01-30T02:13:50;45.50;;;16.00;;
70532;SDS011;58088;51.186;17.130;2024-01-30T02:16:16;38.60;;;14.40;;
70532;SDS011;58088;51.186;17.130;2024-01-30T02:18:45;53.10;;;17.80;;
70532;SDS011;58088;51.186;17.130;2024-01-30T02:21:17;37.90;;;15.60;;
70532;SDS011;58088;51.186;17.130;2024-01-30T02:23:46;36.90;;;14.40;;
70532;SDS011;58088;51.186;17.130;2024-01-30T02:26:12;31.70;;;13.00;;
70532;SDS011;58088;51.186;17.130;2024-01-30T02:28:38;29.00;;;11.70;;
70532;SDS011;58088;51.186;17.130;2024-01-30T02:31:05;31.00;;;12.40;;
70532;SDS011;58088;51.186;17.130;2024-01-30T02:33:31;30.90;;;11.60;;
70532;SDS011;58088;51.186;17.130;2024-01-30T02:35:57;24.00;;;10.70;;
70532;SDS011;58088;51.186;17.130;2024-01-30T02:38:24;23.90;;;9.10;;
70532;SDS011;58088;51.186;17.130;2024-01-30T02:40:52;23.40;;;9.10;;
70532;SDS011;58088;51.186;17.130;2024-01-30T02:43:19;21.20;;;8.60;;
70532;SDS011;58088;51.186;17.130;2024-01-30T02:45:45;23.90;;;9.30;;
70532;SDS011;58088;51.186;17.130;2024-01-30T02:48:11;24.30;;;8.80;;
70532;SDS011;58088;51.186;17.130;2024-01-30T02:50:37;18.60;;;7.60;;
70532;SDS011;58088;51.186;17.130;2024-01-30T02:53:04;20.30;;;7.70;;
70532;SDS011;58088;51.186;17.130;2024-01-30T02:55:30;21.00;;;6.80;;
70532;SDS011;58088;51.186;17.130;2024-01-30T02:57:56;16.30;;;6.20;;
70532;SDS011;58088;51.186;17.130;2024-01-30T03:00:23;19.10;;;7.30;;
70532;SDS011;58088;51.186;17.130;2024-01-30T03:03:08;18.70;;;8.00;;
70532;SDS011;58088;51.186;17.130;2024-01-30T03:05:40;18.90;;;7.80;;
70532;SDS011;58088;51.186;17.130;2024-01-30T03:08:06;22.40;;;7.70;;
70532;SDS011;58088;51.186;17.130;2024-01-30T03:10:32;20.70;;;6.70;;
70532;SDS011;58088;51.186;17.130;2024-01-30T03:12:58;17.00;;;6.60;;
70532;SDS011;58088;51.186;17.130;2024-01-30T03:15:24;17.80;;;7.10;;
70532;SDS011;58088;51.186;17.130;2024-01-30T03:17:50;22.40;;;8.00;;
70532;SDS011;58088;51.186;17.130;2024-01-30T03:20:16;17.40;;;7.20;;
70532;SDS011;58088;51.186;17.130;2024-01-30T03:22:43;20.90;;;8.10;;
70532;SDS011;58088;51.186;17.130;2024-01-30T03:25:09;20.70;;;8.20;;
70532;SDS011;58088;51.186;17.130;2024-01-30T03:27:35;17.40;;;6.90;;
70532;SDS011;58088;51.186;17.130;2024-01-30T03:30:01;18.90;;;7.00;;
70532;SDS011;58088;51.186;17.130;2024-01-30T03:32:27;22.50;;;9.10;;
70532;SDS011;58088;51.186;17.130;2024-01-30T03:34:53;18.90;;;7.90;;
70532;SDS011;58088;51.186;17.130;2024-01-30T03:37:20;23.20;;;8.50;;
70532;SDS011;58088;51.186;17.130;2024-01-30T03:39:46;21.20;;;7.70;;
70532;SDS011;58088;51.186;17.130;2024-01-30T03:42:12;21.60;;;8.90;;
70532;SDS011;58088;51.186;17.130;2024-01-30T03:44:38;24.70;;;8.50;;
70532;SDS011;58088;51.186;17.130;2024-01-30T03:47:04;19.60;;;8.10;;
70532;SDS011;58088;51.186;17.130;2024-01-30T03:49:30;19.50;;;7.70;;
70532;SDS011;58088;51.186;17.130;2024-01-30T03:51:56;30.20;;;11.80;;
70532;SDS011;58088;51.186;17.130;2024-01-30T03:54:22;28.40;;;10.60;;
70532;SDS011;58088;51.186;17.130;2024-01-30T03:56:48;20.70;;;8.40;;
70532;SDS011;58088;51.186;17.130;2024-01-30T03:59:14;21.30;;;8.60;;
70532;SDS011;58088;51.186;17.130;2024-01-30T04:01:40;24.10;;;9.20;;
70532;SDS011;58088;51.186;17.130;2024-01-30T04:04:06;24.00;;;9.70;;
70532;SDS011;58088;51.186;17.130;2024-01-30T04:06:33;23.50;;;9.70;;
70532;SDS011;58088;51.186;17.130;2024-01-30T04:08:59;26.10;;;9.00;;
70532;SDS011;58088;51.186;17.130;2024-01-30T04:11:25;21.60;;;8.90;;
70532;SDS011;58088;51.186;17.130;2024-01-30T04:13:52;20.90;;;8.70;;
70532;SDS011;58088;51.186;17.130;2024-01-30T04:16:22;19.70;;;8.50;;
70532;SDS011;58088;51.186;17.130;2024-01-30T04:18:48;15.70;;;7.40;;
70532;SDS011;58088;51.186;17.130;2024-01-30T04:21:15;25.00;;;8.30;;
70532;SDS011;58088;51.186;17.130;2024-01-30T04:23:41;21.60;;;7.90;;
70532;SDS011;58088;51.186;17.130;2024-01-30T04:26:08;21.80;;;8.70;;
70532;SDS011;58088;51.186;17.130;2024-01-30T04:28:34;23.60;;;9.00;;
70532;SDS011;58088;51.186;17.130;2024-01-30T04:31:00;21.80;;;8.50;;
70532;SDS011;58088;51.186;17.130;2024-01-30T04:33:26;17.20;;;7.10;;
70532;SDS011;58088;51.186;17.130;2024-01-30T04:35:52;20.40;;;7.40;;
70532;SDS011;58088;51.186;17.130;2024-01-30T04:38:18;18.70;;;7.30;;
70532;SDS011;58088;51.186;17.130;2024-01-30T04:40:45;20.10;;;8.00;;
70532;SDS011;58088;51.186;17.130;2024-01-30T04:43:11;21.00;;;7.60;;
70532;SDS011;58088;51.186;17.130;2024-01-30T04:45:37;18.90;;;7.70;;
70532;SDS011;58088;51.186;17.130;2024-01-30T04:48:03;21.60;;;8.20;;
70532;SDS011;58088;51.186;17.130;2024-01-30T04:50:29;18.10;;;8.00;;
70532;SDS011;58088;51.186;17.130;2024-01-30T04:52:56;20.30;;;8.00;;
70532;SDS011;58088;51.186;17.130;2024-01-30T04:55:22;22.80;;;9.10;;
70532;SDS011;58088;51.186;17.130;2024-01-30T04:57:49;22.10;;;9.10;;
70532;SDS011;58088;51.186;17.130;2024-01-30T05:00:15;22.80;;;9.10;;
70532;SDS011;58088;51.186;17.130;2024-01-30T05:02:42;21.70;;;9.00;;
70532;SDS011;58088;51.186;17.130;2024-01-30T05:05:08;20.80;;;8.50;;
70532;SDS011;58088;51.186;17.130;2024-01-30T05:07:35;25.90;;;10.10;;
70532;SDS011;58088;51.186;17.130;2024-01-30T05:10:02;22.10;;;9.10;;
70532;SDS011;58088;51.186;17.130;2024-01-30T05:12:29;20.70;;;8.60;;
70532;SDS011;58088;51.186;17.130;2024-01-30T05:14:55;22.00;;;8.30;;
70532;SDS011;58088;51.186;17.130;2024-01-30T05:17:21;21.70;;;8.90;;
70532;SDS011;58088;51.186;17.130;2024-01-30T05:19:47;21.90;;;8.30;;
70532;SDS011;58088;51.186;17.130;2024-01-30T05:22:13;19.50;;;8.00;;
70532;SDS011;58088;51.186;17.130;2024-01-30T05:24:41;18.90;;;6.30;;
70532;SDS011;58088;51.186;17.130;2024-01-30T05:27:08;19.00;;;7.30;;
70532;SDS011;58088;51.186;17.130;2024-01-30T05:29:34;17.80;;;7.70;;
70532;SDS011;58088;51.186;17.130;2024-01-30T05:32:00;21.90;;;7.20;;
70532;SDS011;58088;51.186;17.130;2024-01-30T05:34:26;15.80;;;6.90;;
70532;SDS011;58088;51.186;17.130;2024-01-30T05:36:52;18.70;;;7.50;;
70532;SDS011;58088;51.186;17.130;2024-01-30T05:39:19;17.90;;;7.30;;
70532;SDS011;58088;51.186;17.130;2024-01-30T05:41:45;19.30;;;8.70;;
70532;SDS011;58088;51.186;17.130;2024-01-30T05:44:11;25.50;;;11.70;;
70532;SDS011;58088;51.186;17.130;2024-01-30T05:46:38;25.50;;;9.40;;
70532;SDS011;58088;51.186;17.130;2024-01-30T05:49:04;24.20;;;10.10;;
70532;SDS011;58088;51.186;17.130;2024-01-30T05:51:30;32.00;;;10.90;;
70532;SDS011;58088;51.186;17.130;2024-01-30T05:53:56;32.80;;;11.70;;
70532;SDS011;58088;51.186;17.130;2024-01-30T05:56:23;25.10;;;9.70;;
70532;SDS011;58088;51.186;17.130;2024-01-30T05:58:49;31.50;;;10.90;;
70532;SDS011;58088;51.186;17.130;2024-01-30T06:01:16;24.90;;;9.50;;
70532;SDS011;58088;51.186;17.130;2024-01-30T06:03:43;65.40;;;20.80;;
70532;SDS011;58088;51.186;17.130;2024-01-30T06:06:09;60.90;;;20.60;;
70532;SDS011;58088;51.186;17.130;2024-01-30T06:08:35;45.80;;;15.60;;
70532;SDS011;58088;51.186;17.130;2024-01-30T06:11:01;48.90;;;16.60;;
70532;SDS011;58088;51.186;17.130;2024-01-30T06:13:27;42.60;;;15.10;;
70532;SDS011;58088;51.186;17.130;2024-01-30T06:15:54;44.20;;;15.60;;
70532;SDS011;58088;51.186;17.130;2024-01-30T06:18:20;43.10;;;15.10;;
70532;SDS011;58088;51.186;17.130;2024-01-30T06:20:46;40.40;;;14.30;;
70532;SDS011;58088;51.186;17.130;2024-01-30T06:23:12;34.20;;;13.40;;
70532;SDS011;58088;51.186;17.130;2024-01-30T06:25:40;37.40;;;13.80;;
70532;SDS011;58088;51.186;17.130;2024-01-30T06:28:06;31.60;;;13.50;;
70532;SDS011;58088;51.186;17.130;2024-01-30T06:30:32;37.40;;;14.00;;
70532;SDS011;58088;51.186;17.130;2024-01-30T06:32:58;42.30;;;14.80;;
70532;SDS011;58088;51.186;17.130;2024-01-30T06:35:24;36.30;;;13.10;;
70532;SDS011;58088;51.186;17.130;2024-01-30T06:37:51;33.00;;;12.40;;
70532;SDS011;58088;51.186;17.130;2024-01-30T06:40:18;39.20;;;14.50;;
70532;SDS011;58088;51.186;17.130;2024-01-30T06:42:44;39.30;;;13.00;;
70532;SDS011;58088;51.186;17.130;2024-01-30T06:45:10;40.00;;;13.70;;
70532;SDS011;58088;51.186;17.130;2024-01-30T06:47:36;32.90;;;12.30;;
70532;SDS011;58088;51.186;17.130;2024-01-30T06:50:02;34.20;;;11.90;;
70532;SDS011;58088;51.186;17.130;2024-01-30T06:52:29;37.70;;;12.40;;
70532;SDS011;58088;51.186;17.130;2024-01-30T06:54:55;41.70;;;13.50;;
70532;SDS011;58088;51.186;17.130;2024-01-30T06:57:21;33.70;;;12.20;;
70532;SDS011;58088;51.186;17.130;2024-01-30T06:59:47;31.60;;;11.40;;
70532;SDS011;58088;51.186;17.130;2024-01-30T07:02:13;31.50;;;11.80;;
70532;SDS011;58088;51.186;17.130;2024-01-30T07:04:40;39.20;;;14.50;;
70532;SDS011;58088;51.186;17.130;2024-01-30T07:07:07;37.40;;;13.20;;
70532;SDS011;58088;51.186;17.130;2024-01-30T07:09:38;19.40;;;8.00;;
70532;SDS011;58088;51.186;17.130;2024-01-30T07:12:05;20.80;;;7.80;;
70532;SDS011;58088;51.186;17.130;2024-01-30T07:14:32;26.10;;;9.90;;
70532;SDS011;58088;51.186;17.130;2024-01-30T07:16:58;20.50;;;6.90;;
70532;SDS011;58088;51.186;17.130;2024-01-30T07:19:24;26.00;;;9.60;;
70532;SDS011;58088;51.186;17.130;2024-01-30T07:21:50;29.80;;;11.00;;
70532;SDS011;58088;51.186;17.130;2024-01-30T07:24:16;25.70;;;10.10;;
70532;SDS011;58088;51.186;17.130;2024-01-30T07:26:43;25.90;;;10.10;;
70532;SDS011;58088;51.186;17.130;2024-01-30T07:29:09;32.40;;;11.00;;
70532;SDS011;58088;51.186;17.130;2024-01-30T07:31:36;28.60;;;10.60;;
70532;SDS011;58088;51.186;17.130;2024-01-30T07:34:02;25.30;;;9.90;;
70532;SDS011;58088;51.186;17.130;2024-01-30T07:36:28;28.80;;;11.30;;
70532;SDS011;58088;51.186;17.130;2024-01-30T07:38:57;29.00;;;11.70;;
70532;SDS011;58088;51.186;17.130;2024-01-30T07:41:24;27.30;;;11.10;;
70532;SDS011;58088;51.186;17.130;2024-01-30T07:43:51;30.90;;;12.00;;
70532;SDS011;58088;51.186;17.130;2024-01-30T07:46:17;29.30;;;11.70;;
70532;SDS011;58088;51.186;17.130;2024-01-30T07:48:43;24.20;;;10.30;;
70532;SDS011;58088;51.186;17.130;2024-01-30T07:51:09;26.90;;;10.30;;
70532;SDS011;58088;51.186;17.130;2024-01-30T07:53:35;22.60;;;9.60;;
70532;SDS011;58088;51.186;17.130;2024-01-30T07:56:01;23.00;;;10.30;;
70532;SDS011;58088;51.186;17.130;2024-01-30T07:58:28;24.00;;;10.10;;
70532;SDS011;58088;51.186;17.130;2024-01-30T08:00:54;27.10;;;10.00;;
70532;SDS011;58088;51.186;17.130;2024-01-30T08:03:22;24.30;;;8.90;;
70532;SDS011;58088;51.186;17.130;2024-01-30T08:05:48;20.00;;;8.70;;
70532;SDS011;58088;51.186;17.130;2024-01-30T08:08:14;18.80;;;7.30;;
70532;SDS011;58088;51.186;17.130;2024-01-30T08:10:40;18.80;;;7.90;;
70532;SDS011;58088;51.186;17.130;2024-01-30T08:13:07;18.20;;;7.40;;
70532;SDS011;58088;51.186;17.130;2024-01-30T08:15:34;17.20;;;6.90;;
70532;SDS011;58088;51.186;17.130;2024-01-30T08:18:00;18.90;;;7.60;;
70532;SDS011;58088;51.186;17.130;2024-01-30T08:20:26;15.00;;;6.70;;
70532;SDS011;58088;51.186;17.130;2024-01-30T08:22:52;18.20;;;7.60;;
70532;SDS011;58088;51.186;17.130;2024-01-30T08:25:18;16.20;;;6.20;;
70532;SDS011;58088;51.186;17.130;2024-01-30T08:27:45;16.50;;;6.70;;
70532;SDS011;58088;51.186;17.130;2024-01-30T08:30:11;15.00;;;7.10;;
70532;SDS011;58088;51.186;17.130;2024-01-30T08:32:37;17.00;;;7.30;;
70532;SDS011;58088;51.186;17.130;2024-01-30T08:35:04;16.80;;;6.70;;
70532;SDS011;58088;51.186;17.130;2024-01-30T08:37:30;14.90;;;5.40;;
70532;SDS011;58088;51.186;17.130;2024-01-30T08:39:56;14.00;;;5.90;;
70532;SDS011;58088;51.186;17.130;2024-01-30T08:42:22;13.90;;;5.30;;
70532;SDS011;58088;51.186;17.130;2024-01-30T08:44:49;15.30;;;6.40;;
70532;SDS011;58088;51.186;17.130;2024-01-30T08:47:17;15.40;;;6.50;;
70532;SDS011;58088;51.186;17.130;2024-01-30T08:49:44;16.50;;;7.00;;
70532;SDS011;58088;51.186;17.130;2024-01-30T08:52:11;15.20;;;6.50;;
70532;SDS011;58088;51.186;17.130;2024-01-30T08:54:37;14.60;;;6.10;;
70532;SDS011;58088;51.186;17.130;2024-01-30T08:57:03;13.90;;;5.90;;
70532;SDS011;58088;51.186;17.130;2024-01-30T08:59:30;15.50;;;6.70;;
70532;SDS011;58088;51.186;17.130;2024-01-30T09:01:56;13.20;;;6.50;;
70532;SDS011;58088;51.186;17.130;2024-01-30T09:04:24;12.30;;;5.20;;
70532;SDS011;58088;51.186;17.130;2024-01-30T09:06:50;13.20;;;6.00;;
70532;SDS011;58088;51.186;17.130;2024-01-30T09:09:17;13.80;;;5.80;;
70532;SDS011;58088;51.186;17.130;2024-01-30T09:11:43;11.80;;;5.60;;
70532;SDS011;58088;51.186;17.130;2024-01-30T09:14:09;12.90;;;5.80;;
70532;SDS011;58088;51.186;17.130;2024-01-30T09:16:36;11.30;;;4.90;;
70532;SDS011;58088;51.186;17.130;2024-01-30T09:19:02;10.70;;;4.60;;
70532;SDS011;58088;51.186;17.130;2024-01-30T09:21:29;11.10;;;4.90;;
70532;SDS011;58088;51.186;17.130;2024-01-30T09:24:01;10.20;;;4.40;;
70532;SDS011;58088;51.186;17.130;2024-01-30T09:26:31;10.10;;;4.20;;
70532;SDS011;58088;51.186;17.130;2024-01-30T09:28:58;8.90;;;3.70;;
70532;SDS011;58088;51.186;17.130;2024-01-30T09:31:24;9.80;;;4.30;;
70532;SDS011;58088;51.186;17.130;2024-01-30T09:33:51;9.60;;;4.70;;
70532;SDS011;58088;51.186;17.130;2024-01-30T09:36:20;11.90;;;4.40;;
70532;SDS011;58088;51.186;17.130;2024-01-30T09:38:49;11.00;;;4.30;;
70532;SDS011;58088;51.186;17.130;2024-01-30T09:41:16;12.90;;;4.40;;
70532;SDS011;58088;51.186;17.130;2024-01-30T09:43:47;11.00;;;4.30;;
70532;SDS011;58088;51.186;17.130;2024-01-30T09:46:16;11.60;;;4.20;;
70532;SDS011;58088;51.186;17.130;2024-01-30T09:48:46;10.10;;;4.30;;
70532;SDS011;58088;51.186;17.130;2024-01-30T09:51:17;9.60;;;4.00;;
70532;SDS011;58088;51.186;17.130;2024-01-30T09:53:44;10.80;;;4.20;;
70532;SDS011;58088;51.186;17.130;2024-01-30T09:56:12;9.50;;;3.60;;
70532;SDS011;58088;51.186;17.130;2024-01-30T09:58:38;9.90;;;4.20;;
70532;SDS011;58088;51.186;17.130;2024-01-30T10:01:05;8.50;;;4.10;;
70532;SDS011;58088;51.186;17.130;2024-01-30T10:03:35;10.00;;;4.00;;
70532;SDS011;58088;51.186;17.130;2024-01-30T10:06:02;8.30;;;3.80;;
70532;SDS011;58088;51.186;17.130;2024-01-30T10:08:29;9.50;;;4.10;;
70532;SDS011;58088;51.186;17.130;2024-01-30T10:10:59;9.00;;;3.40;;
70532;SDS011;58088;51.186;17.130;2024-01-30T10:13:26;7.00;;;3.30;;
70532;SDS011;58088;51.186;17.130;2024-01-30T10:15:53;8.10;;;3.30;;
70532;SDS011;58088;51.186;17.130;2024-01-30T10:18:20;9.20;;;3.70;;
70532;SDS011;58088;51.186;17.130;2024-01-30T10:20:48;8.00;;;3.10;;
70532;SDS011;58088;51.186;17.130;2024-01-30T10:23:14;9.50;;;3.60;;
70532;SDS011;58088;51.186;17.130;2024-01-30T10:25:42;8.30;;;3.10;;
70532;SDS011;58088;51.186;17.130;2024-01-30T10:28:11;8.30;;;3.20;;
70532;SDS011;58088;51.186;17.130;2024-01-30T10:30:38;8.50;;;3.40;;
70532;SDS011;58088;51.186;17.130;2024-01-30T10:33:04;8.60;;;3.20;;
70532;SDS011;58088;51.186;17.130;2024-01-30T10:35:31;8.70;;;3.80;;
70532;SDS011;58088;51.186;17.130;2024-01-30T10:37:59;7.30;;;3.40;;
70532;SDS011;58088;51.186;17.130;2024-01-30T10:40:29;8.20;;;3.30;;
70532;SDS011;58088;51.186;17.130;2024-01-30T10:42:56;8.70;;;3.50;;
70532;SDS011;58088;51.186;17.130;2024-01-30T10:45:22;9.20;;;3.60;;
70532;SDS011;58088;51.186;17.130;2024-01-30T10:47:53;7.90;;;3.30;;
70532;SDS011;58088;51.186;17.130;2024-01-30T10:50:24;7.80;;;3.20;;
70532;SDS011;58088;51.186;17.130;2024-01-30T10:52:54;8.50;;;3.00;;
70532;SDS011;58088;51.186;17.130;2024-01-30T10:55:21;8.20;;;3.50;;
70532;SDS011;58088;51.186;17.130;2024-01-30T10:57:51;8.00;;;2.90;;
70532;SDS011;58088;51.186;17.130;2024-01-30T11:00:18;7.80;;;3.70;;
70532;SDS011;58088;51.186;17.130;2024-01-30T11:02:48;7.30;;;3.10;;
70532;SDS011;58088;51.186;17.130;2024-01-30T11:05:23;9.30;;;3.40;;
70532;SDS011;58088;51.186;17.130;2024-01-30T11:07:53;8.10;;;3.40;;
70532;SDS011;58088;51.186;17.130;2024-01-30T11:10:19;7.80;;;3.00;;
70532;SDS011;58088;51.186;17.130;2024-01-30T11:12:46;8.50;;;3.30;;
70532;SDS011;58088;51.186;17.130;2024-01-30T11:15:14;9.10;;;3.50;;
70532;SDS011;58088;51.186;17.130;2024-01-30T11:20:36;9.00;;;3.40;;
70532;SDS011;58088;51.186;17.130;2024-01-30T11:23:02;7.30;;;3.00;;
70532;SDS011;58088;51.186;17.130;2024-01-30T11:25:32;7.40;;;3.10;;
70532;SDS011;58088;51.186;17.130;2024-01-30T11:28:04;7.80;;;3.00;;
70532;SDS011;58088;51.186;17.130;2024-01-30T11:30:31;8.90;;;3.40;;
70532;SDS011;58088;51.186;17.130;2024-01-30T11:33:11;8.80;;;3.30;;
70532;SDS011;58088;51.186;17.130;2024-01-30T11:35:42;8.60;;;3.30;;
70532;SDS011;58088;51.186;17.130;2024-01-30T11:38:11;6.80;;;2.80;;
70532;SDS011;58088;51.186;17.130;2024-01-30T11:40:40;9.10;;;3.30;;
70532;SDS011;58088;51.186;17.130;2024-01-30T11:43:08;8.60;;;2.90;;
70532;SDS011;58088;51.186;17.130;2024-01-30T11:45:36;8.20;;;3.00;;
70532;SDS011;58088;51.186;17.130;2024-01-30T11:48:03;9.40;;;3.30;;
70532;SDS011;58088;51.186;17.130;2024-01-30T11:50:30;7.50;;;3.20;;
70532;SDS011;58088;51.186;17.130;2024-01-30T11:53:01;9.00;;;3.20;;
70532;SDS011;58088;51.186;17.130;2024-01-30T11:55:31;8.70;;;2.60;;
70532;SDS011;58088;51.186;17.130;2024-01-30T11:57:58;7.90;;;3.00;;
70532;SDS011;58088;51.186;17.130;2024-01-30T12:00:25;7.00;;;2.90;;
70532;SDS011;58088;51.186;17.130;2024-01-30T12:02:53;8.90;;;3.10;;
70532;SDS011;58088;51.186;17.130;2024-01-30T12:05:25;7.40;;;2.60;;
70532;SDS011;58088;51.186;17.130;2024-01-30T12:07:52;6.90;;;3.10;;
70532;SDS011;58088;51.186;17.130;2024-01-30T12:10:19;7.80;;;3.10;;
70532;SDS011;58088;51.186;17.130;2024-01-30T12:12:54;7.60;;;3.10;;
70532;SDS011;58088;51.186;17.130;2024-01-30T12:15:22;7.10;;;2.80;;
70532;SDS011;58088;51.186;17.130;2024-01-30T12:17:49;7.20;;;3.00;;
70532;SDS011;58088;51.186;17.130;2024-01-30T12:20:17;7.10;;;2.80;;
70532;SDS011;58088;51.186;17.130;2024-01-30T12:22:46;7.70;;;3.00;;
70532;SDS011;58088;51.186;17.130;2024-01-30T12:25:15;7.30;;;2.70;;
70532;SDS011;58088;51.186;17.130;2024-01-30T12:27:45;9.60;;;3.20;;
70532;SDS011;58088;51.186;17.130;2024-01-30T12:30:16;6.90;;;2.70;;
70532;SDS011;58088;51.186;17.130;2024-01-30T12:32:46;8.40;;;2.70;;
70532;SDS011;58088;51.186;17.130;2024-01-30T12:35:28;8.40;;;3.10;;
70532;SDS011;58088;51.186;17.130;2024-01-30T12:37:54;8.20;;;3.20;;
70532;SDS011;58088;51.186;17.130;2024-01-30T12:40:33;9.70;;;3.30;;
70532;SDS011;58088;51.186;17.130;2024-01-30T12:43:00;8.30;;;3.30;;
70532;SDS011;58088;51.186;17.130;2024-01-30T12:45:27;8.40;;;3.40;;
70532;SDS011;58088;51.186;17.130;2024-01-30T12:47:53;8.50;;;3.10;;
70532;SDS011;58088;51.186;17.130;2024-01-30T12:50:20;9.30;;;3.40;;
70532;SDS011;58088;51.186;17.130;2024-01-30T12:52:46;7.00;;;3.10;;
70532;SDS011;58088;51.186;17.130;2024-01-30T12:55:13;8.30;;;3.30;;
70532;SDS011;58088;51.186;17.130;2024-01-30T12:57:39;8.80;;;3.10;;
70532;SDS011;58088;51.186;17.130;2024-01-30T13:00:06;8.70;;;3.10;;
70532;SDS011;58088;51.186;17.130;2024-01-30T13:02:34;8.30;;;3.20;;
70532;SDS011;58088;51.186;17.130;2024-01-30T13:05:03;7.80;;;3.00;;
70532;SDS011;58088;51.186;17.130;2024-01-30T13:07:30;6.80;;;3.30;;
70532;SDS011;58088;51.186;17.130;2024-01-30T13:09:57;8.30;;;3.30;;
70532;SDS011;58088;51.186;17.130;2024-01-30T13:12:29;8.80;;;3.40;;
70532;SDS011;58088;51.186;17.130;2024-01-30T13:14:58;8.00;;;3.10;;
70532;SDS011;58088;51.186;17.130;2024-01-30T13:17:27;7.70;;;3.60;;
70532;SDS011;58088;51.186;17.130;2024-01-30T13:19:54;7.00;;;3.30;;
70532;SDS011;58088;51.186;17.130;2024-01-30T13:22:20;7.60;;;3.30;;
70532;SDS011;58088;51.186;17.130;2024-01-30T13:24:50;7.30;;;3.10;;
70532;SDS011;58088;51.186;17.130;2024-01-30T13:27:17;8.00;;;3.00;;
70532;SDS011;58088;51.186;17.130;2024-01-30T13:29:43;7.70;;;3.30;;
70532;SDS011;58088;51.186;17.130;2024-01-30T13:32:10;8.20;;;3.40;;
70532;SDS011;58088;51.186;17.130;2024-01-30T13:34:36;8.00;;;3.40;;
70532;SDS011;58088;51.186;17.130;2024-01-30T13:37:02;6.60;;;2.90;;
70532;SDS011;58088;51.186;17.130;2024-01-30T13:39:29;8.20;;;3.80;;
70532;SDS011;58088;51.186;17.130;2024-01-30T13:41:55;8.30;;;3.50;;
70532;SDS011;58088;51.186;17.130;2024-01-30T13:44:21;8.90;;;3.50;;
70532;SDS011;58088;51.186;17.130;2024-01-30T13:46:55;9.10;;;3.50;;
70532;SDS011;58088;51.186;17.130;2024-01-30T13:49:21;9.90;;;3.60;;
70532;SDS011;58088;51.186;17.130;2024-01-30T13:51:48;9.40;;;3.80;;
70532;SDS011;58088;51.186;17.130;2024-01-30T13:54:17;8.40;;;3.70;;
70532;SDS011;58088;51.186;17.130;2024-01-30T13:56:43;7.40;;;3.50;;
70532;SDS011;58088;51.186;17.130;2024-01-30T13:59:10;9.60;;;4.00;;
70532;SDS011;58088;51.186;17.130;2024-01-30T14:01:36;9.50;;;4.00;;
70532;SDS011;58088;51.186;17.130;2024-01-30T14:04:02;8.00;;;3.50;;
70532;SDS011;58088;51.186;17.130;2024-01-30T14:06:28;8.30;;;3.80;;
70532;SDS011;58088;51.186;17.130;2024-01-30T14:08:55;9.70;;;3.90;;
70532;SDS011;58088;51.186;17.130;2024-01-30T14:11:21;8.60;;;3.50;;
70532;SDS011;58088;51.186;17.130;2024-01-30T14:13:47;9.00;;;3.40;;
70532;SDS011;58088;51.186;17.130;2024-01-30T14:16:14;7.70;;;3.50;;
70532;SDS011;58088;51.186;17.130;2024-01-30T14:18:40;8.20;;;3.80;;
70532;SDS011;58088;51.186;17.130;2024-01-30T14:21:07;8.70;;;3.50;;
70532;SDS011;58088;51.186;17.130;2024-01-30T14:23:33;9.60;;;4.20;;